sensor_id;sensor_type;location;lat;lon;timestamp;P1;durP1;ratioP1;P2;durP2;ratioP2
40459;SDS011;26164;51.138;16.952;2022-12-07T00:01:12;15.68;;;8.45;;
40459;SDS011;26164;51.138;16.952;2022-12-07T00:03:41;22.05;;;11.63;;
40459;SDS011;26164;51.138;16.952;2022-12-07T00:06:09;18.95;;;11.20;;
40459;SDS011;26164;51.138;16.952;2022-12-07T00:08:39;15.70;;;9.50;;
40459;SDS011;26164;51.138;16.952;2022-12-07T00:11:39;13.93;;;7.78;;
40459;SDS011;26164;51.138;16.952;2022-12-07T00:14:25;15.95;;;8.32;;
40459;SDS011;26164;51.138;16.952;2022-12-07T00:17:16;15.63;;;8.68;;
40459;SDS011;26164;51.138;16.952;2022-12-07T00:20:13;16.83;;;9.02;;
40459;SDS011;26164;51.138;16.952;2022-12-07T00:23:08;11.75;;;6.68;;
40459;SDS011;26164;51.138;16.952;2022-12-07T00:25:35;11.98;;;6.63;;
40459;SDS011;26164;51.138;16.952;2022-12-07T00:28:03;15.13;;;9.20;;
40459;SDS011;26164;51.138;16.952;2022-12-07T00:30:31;10.40;;;5.05;;
40459;SDS011;26164;51.138;16.952;2022-12-07T00:32:57;11.23;;;6.10;;
40459;SDS011;26164;51.138;16.952;2022-12-07T00:35:28;8.25;;;5.07;;
40459;SDS011;26164;51.138;16.952;2022-12-07T00:37:57;11.82;;;6.00;;
40459;SDS011;26164;51.138;16.952;2022-12-07T00:40:24;10.50;;;5.75;;
40459;SDS011;26164;51.138;16.952;2022-12-07T00:42:50;10.32;;;4.68;;
40459;SDS011;26164;51.138;16.952;2022-12-07T00:45:16;9.23;;;5.53;;
40459;SDS011;26164;51.138;16.952;2022-12-07T00:47:42;10.75;;;5.57;;
40459;SDS011;26164;51.138;16.952;2022-12-07T00:50:08;9.20;;;4.93;;
40459;SDS011;26164;51.138;16.952;2022-12-07T00:52:36;9.35;;;4.90;;
40459;SDS011;26164;51.138;16.952;2022-12-07T00:55:02;7.70;;;4.50;;
40459;SDS011;26164;51.138;16.952;2022-12-07T00:57:30;6.72;;;3.88;;
40459;SDS011;26164;51.138;16.952;2022-12-07T00:59:56;10.73;;;4.78;;
40459;SDS011;26164;51.138;16.952;2022-12-07T01:02:23;7.05;;;3.78;;
40459;SDS011;26164;51.138;16.952;2022-12-07T01:04:49;6.82;;;3.13;;
40459;SDS011;26164;51.138;16.952;2022-12-07T01:07:15;9.70;;;4.72;;
40459;SDS011;26164;51.138;16.952;2022-12-07T01:09:41;8.07;;;4.00;;
40459;SDS011;26164;51.138;16.952;2022-12-07T01:12:07;6.78;;;3.97;;
40459;SDS011;26164;51.138;16.952;2022-12-07T01:14:36;6.28;;;2.65;;
40459;SDS011;26164;51.138;16.952;2022-12-07T01:17:02;6.50;;;3.35;;
40459;SDS011;26164;51.138;16.952;2022-12-07T01:19:48;6.28;;;3.38;;
40459;SDS011;26164;51.138;16.952;2022-12-07T01:22:16;5.45;;;2.72;;
40459;SDS011;26164;51.138;16.952;2022-12-07T01:24:42;4.32;;;2.22;;
40459;SDS011;26164;51.138;16.952;2022-12-07T01:27:13;4.97;;;2.90;;
40459;SDS011;26164;51.138;16.952;2022-12-07T01:29:39;5.70;;;3.45;;
40459;SDS011;26164;51.138;16.952;2022-12-07T01:32:05;4.97;;;3.05;;
40459;SDS011;26164;51.138;16.952;2022-12-07T01:34:31;6.88;;;3.33;;
40459;SDS011;26164;51.138;16.952;2022-12-07T01:36:58;5.45;;;2.45;;
40459;SDS011;26164;51.138;16.952;2022-12-07T01:39:23;7.10;;;2.95;;
40459;SDS011;26164;51.138;16.952;2022-12-07T01:41:51;5.63;;;3.78;;
40459;SDS011;26164;51.138;16.952;2022-12-07T01:44:24;6.28;;;3.15;;
40459;SDS011;26164;51.138;16.952;2022-12-07T01:46:56;5.00;;;2.80;;
40459;SDS011;26164;51.138;16.952;2022-12-07T01:52:09;5.43;;;2.78;;
40459;SDS011;26164;51.138;16.952;2022-12-07T01:54:44;4.72;;;2.85;;
40459;SDS011;26164;51.138;16.952;2022-12-07T01:57:13;4.10;;;2.50;;
40459;SDS011;26164;51.138;16.952;2022-12-07T01:59:41;7.45;;;3.15;;
40459;SDS011;26164;51.138;16.952;2022-12-07T02:02:12;5.10;;;2.70;;
40459;SDS011;26164;51.138;16.952;2022-12-07T02:04:44;4.65;;;2.30;;
40459;SDS011;26164;51.138;16.952;2022-12-07T02:07:11;4.65;;;2.83;;
40459;SDS011;26164;51.138;16.952;2022-12-07T02:09:38;4.82;;;2.70;;
40459;SDS011;26164;51.138;16.952;2022-12-07T02:12:04;5.07;;;2.45;;
40459;SDS011;26164;51.138;16.952;2022-12-07T02:14:30;5.18;;;2.60;;
40459;SDS011;26164;51.138;16.952;2022-12-07T02:28:31;4.68;;;2.83;;
40459;SDS011;26164;51.138;16.952;2022-12-07T02:31:04;5.05;;;2.95;;
40459;SDS011;26164;51.138;16.952;2022-12-07T02:36:26;4.68;;;2.70;;
40459;SDS011;26164;51.138;16.952;2022-12-07T02:41:39;6.18;;;3.33;;
40459;SDS011;26164;51.138;16.952;2022-12-07T02:44:12;6.22;;;3.75;;
40459;SDS011;26164;51.138;16.952;2022-12-07T02:46:44;7.25;;;4.20;;
40459;SDS011;26164;51.138;16.952;2022-12-07T02:49:19;6.60;;;2.97;;
40459;SDS011;26164;51.138;16.952;2022-12-07T02:51:48;5.85;;;3.75;;
40459;SDS011;26164;51.138;16.952;2022-12-07T02:54:19;5.63;;;3.47;;
40459;SDS011;26164;51.138;16.952;2022-12-07T03:02:10;5.53;;;3.60;;
40459;SDS011;26164;51.138;16.952;2022-12-07T03:13:13;7.30;;;4.82;;
40459;SDS011;26164;51.138;16.952;2022-12-07T03:18:30;7.15;;;4.78;;
40459;SDS011;26164;51.138;16.952;2022-12-07T03:21:04;6.82;;;4.20;;
40459;SDS011;26164;51.138;16.952;2022-12-07T03:23:37;7.85;;;5.47;;
40459;SDS011;26164;51.138;16.952;2022-12-07T03:26:07;5.45;;;3.55;;
40459;SDS011;26164;51.138;16.952;2022-12-07T03:28:38;8.30;;;5.68;;
40459;SDS011;26164;51.138;16.952;2022-12-07T03:31:14;7.88;;;5.47;;
40459;SDS011;26164;51.138;16.952;2022-12-07T03:39:03;9.82;;;5.78;;
40459;SDS011;26164;51.138;16.952;2022-12-07T03:41:48;8.95;;;5.80;;
40459;SDS011;26164;51.138;16.952;2022-12-07T03:44:15;8.30;;;5.35;;
40459;SDS011;26164;51.138;16.952;2022-12-07T03:54:34;10.10;;;5.20;;
40459;SDS011;26164;51.138;16.952;2022-12-07T03:57:10;11.55;;;6.15;;
40459;SDS011;26164;51.138;16.952;2022-12-07T03:59:38;10.05;;;6.63;;
40459;SDS011;26164;51.138;16.952;2022-12-07T04:02:06;9.05;;;5.78;;
40459;SDS011;26164;51.138;16.952;2022-12-07T04:04:32;10.25;;;6.80;;
40459;SDS011;26164;51.138;16.952;2022-12-07T04:07:00;9.88;;;6.32;;
40459;SDS011;26164;51.138;16.952;2022-12-07T04:09:25;7.97;;;3.55;;
40459;SDS011;26164;51.138;16.952;2022-12-07T04:11:52;7.40;;;4.78;;
40459;SDS011;26164;51.138;16.952;2022-12-07T04:14:18;8.95;;;5.18;;
40459;SDS011;26164;51.138;16.952;2022-12-07T04:16:55;12.13;;;5.32;;
40459;SDS011;26164;51.138;16.952;2022-12-07T04:19:23;9.38;;;5.22;;
40459;SDS011;26164;51.138;16.952;2022-12-07T04:21:52;7.68;;;4.88;;
40459;SDS011;26164;51.138;16.952;2022-12-07T04:24:18;13.73;;;7.05;;
40459;SDS011;26164;51.138;16.952;2022-12-07T04:26:45;10.07;;;5.65;;
40459;SDS011;26164;51.138;16.952;2022-12-07T04:29:18;10.38;;;4.85;;
40459;SDS011;26164;51.138;16.952;2022-12-07T04:31:45;7.50;;;4.13;;
40459;SDS011;26164;51.138;16.952;2022-12-07T04:34:11;8.40;;;4.80;;
40459;SDS011;26164;51.138;16.952;2022-12-07T04:36:39;7.03;;;4.38;;
40459;SDS011;26164;51.138;16.952;2022-12-07T04:39:05;10.48;;;6.00;;
40459;SDS011;26164;51.138;16.952;2022-12-07T04:41:33;9.23;;;5.22;;
40459;SDS011;26164;51.138;16.952;2022-12-07T04:44:00;8.95;;;5.13;;
40459;SDS011;26164;51.138;16.952;2022-12-07T04:46:49;8.38;;;4.47;;
40459;SDS011;26164;51.138;16.952;2022-12-07T04:49:30;9.60;;;5.60;;
40459;SDS011;26164;51.138;16.952;2022-12-07T04:51:59;11.85;;;6.13;;
40459;SDS011;26164;51.138;16.952;2022-12-07T04:54:26;12.65;;;5.93;;
40459;SDS011;26164;51.138;16.952;2022-12-07T04:56:53;10.57;;;6.32;;
40459;SDS011;26164;51.138;16.952;2022-12-07T04:59:22;11.82;;;6.78;;
40459;SDS011;26164;51.138;16.952;2022-12-07T05:01:51;11.50;;;6.88;;
40459;SDS011;26164;51.138;16.952;2022-12-07T05:04:17;14.23;;;7.43;;
40459;SDS011;26164;51.138;16.952;2022-12-07T05:06:43;12.02;;;6.82;;
40459;SDS011;26164;51.138;16.952;2022-12-07T05:09:10;19.88;;;9.40;;
40459;SDS011;26164;51.138;16.952;2022-12-07T05:11:36;15.80;;;8.77;;
40459;SDS011;26164;51.138;16.952;2022-12-07T05:14:15;18.38;;;9.85;;
40459;SDS011;26164;51.138;16.952;2022-12-07T05:16:43;23.20;;;10.40;;
40459;SDS011;26164;51.138;16.952;2022-12-07T05:19:12;18.67;;;10.40;;
40459;SDS011;26164;51.138;16.952;2022-12-07T05:21:40;21.80;;;10.60;;
40459;SDS011;26164;51.138;16.952;2022-12-07T05:24:09;21.77;;;11.40;;
40459;SDS011;26164;51.138;16.952;2022-12-07T05:26:37;22.05;;;10.23;;
40459;SDS011;26164;51.138;16.952;2022-12-07T05:29:03;25.48;;;11.52;;
40459;SDS011;26164;51.138;16.952;2022-12-07T05:31:30;25.33;;;12.93;;
40459;SDS011;26164;51.138;16.952;2022-12-07T05:33:57;26.77;;;12.95;;
40459;SDS011;26164;51.138;16.952;2022-12-07T05:36:23;23.33;;;10.55;;
40459;SDS011;26164;51.138;16.952;2022-12-07T05:38:49;26.33;;;12.40;;
40459;SDS011;26164;51.138;16.952;2022-12-07T05:41:16;28.70;;;12.93;;
40459;SDS011;26164;51.138;16.952;2022-12-07T05:44:22;24.83;;;12.60;;
40459;SDS011;26164;51.138;16.952;2022-12-07T05:46:48;25.95;;;12.65;;
40459;SDS011;26164;51.138;16.952;2022-12-07T05:49:15;21.75;;;10.60;;
40459;SDS011;26164;51.138;16.952;2022-12-07T05:51:46;23.38;;;10.98;;
40459;SDS011;26164;51.138;16.952;2022-12-07T05:54:15;21.48;;;11.85;;
40459;SDS011;26164;51.138;16.952;2022-12-07T05:56:42;21.85;;;10.35;;
40459;SDS011;26164;51.138;16.952;2022-12-07T05:59:08;27.65;;;13.93;;
40459;SDS011;26164;51.138;16.952;2022-12-07T06:02:00;27.63;;;14.85;;
40459;SDS011;26164;51.138;16.952;2022-12-07T06:04:44;27.27;;;13.45;;
40459;SDS011;26164;51.138;16.952;2022-12-07T06:07:12;25.38;;;11.65;;
40459;SDS011;26164;51.138;16.952;2022-12-07T06:09:40;26.00;;;12.80;;
40459;SDS011;26164;51.138;16.952;2022-12-07T06:12:08;29.02;;;14.57;;
40459;SDS011;26164;51.138;16.952;2022-12-07T06:14:56;28.67;;;14.57;;
40459;SDS011;26164;51.138;16.952;2022-12-07T06:17:23;30.60;;;14.55;;
40459;SDS011;26164;51.138;16.952;2022-12-07T06:19:49;30.90;;;13.35;;
40459;SDS011;26164;51.138;16.952;2022-12-07T06:22:16;28.13;;;13.52;;
40459;SDS011;26164;51.138;16.952;2022-12-07T06:30:34;28.02;;;13.82;;
40459;SDS011;26164;51.138;16.952;2022-12-07T06:33:01;28.90;;;13.25;;
40459;SDS011;26164;51.138;16.952;2022-12-07T06:35:27;23.70;;;12.05;;
40459;SDS011;26164;51.138;16.952;2022-12-07T06:37:57;24.92;;;10.43;;
40459;SDS011;26164;51.138;16.952;2022-12-07T06:40:23;28.95;;;13.25;;
40459;SDS011;26164;51.138;16.952;2022-12-07T06:42:49;30.55;;;14.45;;
40459;SDS011;26164;51.138;16.952;2022-12-07T06:45:15;20.88;;;10.88;;
40459;SDS011;26164;51.138;16.952;2022-12-07T06:47:42;27.20;;;13.00;;
40459;SDS011;26164;51.138;16.952;2022-12-07T06:50:08;30.05;;;15.25;;
40459;SDS011;26164;51.138;16.952;2022-12-07T06:52:34;24.42;;;13.15;;
40459;SDS011;26164;51.138;16.952;2022-12-07T06:55:00;25.02;;;13.63;;
40459;SDS011;26164;51.138;16.952;2022-12-07T06:57:26;21.80;;;12.05;;
40459;SDS011;26164;51.138;16.952;2022-12-07T06:59:52;23.80;;;12.90;;
40459;SDS011;26164;51.138;16.952;2022-12-07T07:02:18;24.70;;;12.35;;
40459;SDS011;26164;51.138;16.952;2022-12-07T07:04:45;25.25;;;12.07;;
40459;SDS011;26164;51.138;16.952;2022-12-07T07:07:29;16.85;;;8.30;;
40459;SDS011;26164;51.138;16.952;2022-12-07T07:10:14;23.95;;;11.25;;
40459;SDS011;26164;51.138;16.952;2022-12-07T07:13:20;21.75;;;10.45;;
40459;SDS011;26164;51.138;16.952;2022-12-07T07:25:14;27.10;;;13.02;;
40459;SDS011;26164;51.138;16.952;2022-12-07T09:18:41;20.55;;;8.77;;
40459;SDS011;26164;51.138;16.952;2022-12-07T09:21:35;15.10;;;8.50;;
40459;SDS011;26164;51.138;16.952;2022-12-07T09:24:30;16.63;;;8.82;;
40459;SDS011;26164;51.138;16.952;2022-12-07T09:31:37;7.68;;;4.55;;
40459;SDS011;26164;51.138;16.952;2022-12-07T09:35:27;7.45;;;4.13;;
40459;SDS011;26164;51.138;16.952;2022-12-07T13:01:50;7.35;;;4.32;;
40459;SDS011;26164;51.138;16.952;2022-12-07T13:04:31;10.55;;;5.65;;
40459;SDS011;26164;51.138;16.952;2022-12-07T13:10:52;9.77;;;4.88;;
40459;SDS011;26164;51.138;16.952;2022-12-07T13:21:39;12.40;;;6.30;;
40459;SDS011;26164;51.138;16.952;2022-12-07T13:24:49;9.63;;;4.95;;
40459;SDS011;26164;51.138;16.952;2022-12-07T13:27:54;9.95;;;4.88;;
40459;SDS011;26164;51.138;16.952;2022-12-07T13:36:59;10.88;;;5.30;;
40459;SDS011;26164;51.138;16.952;2022-12-07T13:39:34;10.00;;;5.15;;
40459;SDS011;26164;51.138;16.952;2022-12-07T13:42:33;7.25;;;4.40;;
40459;SDS011;26164;51.138;16.952;2022-12-07T13:45:21;14.43;;;6.65;;
40459;SDS011;26164;51.138;16.952;2022-12-07T13:48:12;12.57;;;6.45;;
40459;SDS011;26164;51.138;16.952;2022-12-07T13:51:03;9.63;;;5.55;;
40459;SDS011;26164;51.138;16.952;2022-12-07T13:53:29;9.27;;;5.20;;
40459;SDS011;26164;51.138;16.952;2022-12-07T13:56:12;12.52;;;5.35;;
40459;SDS011;26164;51.138;16.952;2022-12-07T13:58:51;8.35;;;4.35;;
40459;SDS011;26164;51.138;16.952;2022-12-07T14:01:19;6.85;;;3.72;;
40459;SDS011;26164;51.138;16.952;2022-12-07T14:03:51;12.18;;;5.30;;
40459;SDS011;26164;51.138;16.952;2022-12-07T14:06:26;10.15;;;5.88;;
40459;SDS011;26164;51.138;16.952;2022-12-07T14:09:06;14.23;;;6.20;;
40459;SDS011;26164;51.138;16.952;2022-12-07T14:11:35;11.55;;;5.20;;
40459;SDS011;26164;51.138;16.952;2022-12-07T14:14:04;8.82;;;4.85;;
40459;SDS011;26164;51.138;16.952;2022-12-07T14:16:56;13.77;;;4.95;;
40459;SDS011;26164;51.138;16.952;2022-12-07T14:22:55;10.23;;;4.32;;
40459;SDS011;26164;51.138;16.952;2022-12-07T14:25:23;11.98;;;4.13;;
40459;SDS011;26164;51.138;16.952;2022-12-07T14:27:56;8.50;;;4.00;;
40459;SDS011;26164;51.138;16.952;2022-12-07T14:30:45;8.02;;;3.78;;
40459;SDS011;26164;51.138;16.952;2022-12-07T14:33:18;13.13;;;4.75;;
40459;SDS011;26164;51.138;16.952;2022-12-07T14:35:55;7.95;;;3.83;;
40459;SDS011;26164;51.138;16.952;2022-12-07T14:38:27;11.45;;;3.83;;
40459;SDS011;26164;51.138;16.952;2022-12-07T14:40:55;9.25;;;3.97;;
40459;SDS011;26164;51.138;16.952;2022-12-07T14:43:53;9.85;;;5.60;;
40459;SDS011;26164;51.138;16.952;2022-12-07T14:46:29;11.82;;;4.60;;
40459;SDS011;26164;51.138;16.952;2022-12-07T14:49:02;10.82;;;5.13;;
40459;SDS011;26164;51.138;16.952;2022-12-07T14:51:33;13.35;;;4.10;;
40459;SDS011;26164;51.138;16.952;2022-12-07T14:54:20;6.95;;;4.50;;
40459;SDS011;26164;51.138;16.952;2022-12-07T14:56:50;6.45;;;3.15;;
40459;SDS011;26164;51.138;16.952;2022-12-07T14:59:21;8.80;;;2.78;;
40459;SDS011;26164;51.138;16.952;2022-12-07T15:01:50;10.10;;;3.80;;
40459;SDS011;26164;51.138;16.952;2022-12-07T15:04:20;8.77;;;4.05;;
40459;SDS011;26164;51.138;16.952;2022-12-07T15:06:57;9.15;;;4.40;;
40459;SDS011;26164;51.138;16.952;2022-12-07T15:09:29;11.05;;;5.15;;
40459;SDS011;26164;51.138;16.952;2022-12-07T15:11:58;9.02;;;4.43;;
40459;SDS011;26164;51.138;16.952;2022-12-07T15:14:44;12.80;;;5.63;;
40459;SDS011;26164;51.138;16.952;2022-12-07T15:17:25;13.25;;;5.68;;
40459;SDS011;26164;51.138;16.952;2022-12-07T15:19:57;12.68;;;6.32;;
40459;SDS011;26164;51.138;16.952;2022-12-07T15:22:26;13.70;;;6.05;;
40459;SDS011;26164;51.138;16.952;2022-12-07T15:25:14;14.73;;;5.80;;
40459;SDS011;26164;51.138;16.952;2022-12-07T15:27:57;13.90;;;6.22;;
40459;SDS011;26164;51.138;16.952;2022-12-07T15:33:25;10.90;;;6.18;;
40459;SDS011;26164;51.138;16.952;2022-12-07T15:36:20;13.43;;;5.95;;
40459;SDS011;26164;51.138;16.952;2022-12-07T15:38:54;16.80;;;7.67;;
40459;SDS011;26164;51.138;16.952;2022-12-07T15:41:42;19.30;;;8.30;;
40459;SDS011;26164;51.138;16.952;2022-12-07T15:44:38;19.92;;;7.40;;
40459;SDS011;26164;51.138;16.952;2022-12-07T15:47:43;18.60;;;7.82;;
40459;SDS011;26164;51.138;16.952;2022-12-07T15:50:40;16.30;;;6.40;;
40459;SDS011;26164;51.138;16.952;2022-12-07T15:53:32;15.77;;;6.80;;
40459;SDS011;26164;51.138;16.952;2022-12-07T15:56:19;13.35;;;5.80;;
40459;SDS011;26164;51.138;16.952;2022-12-07T16:03:05;11.95;;;5.57;;
40459;SDS011;26164;51.138;16.952;2022-12-07T16:05:36;12.40;;;5.55;;
40459;SDS011;26164;51.138;16.952;2022-12-07T16:08:07;11.57;;;5.32;;
40459;SDS011;26164;51.138;16.952;2022-12-07T16:13:46;14.90;;;7.13;;
40459;SDS011;26164;51.138;16.952;2022-12-07T16:16:18;14.63;;;6.15;;
40459;SDS011;26164;51.138;16.952;2022-12-07T16:19:05;14.32;;;6.82;;
40459;SDS011;26164;51.138;16.952;2022-12-07T16:22:29;14.63;;;7.00;;
40459;SDS011;26164;51.138;16.952;2022-12-07T16:32:28;16.42;;;6.82;;
40459;SDS011;26164;51.138;16.952;2022-12-07T16:35:12;15.05;;;6.88;;
40459;SDS011;26164;51.138;16.952;2022-12-07T16:37:58;17.15;;;6.75;;
40459;SDS011;26164;51.138;16.952;2022-12-07T16:40:47;11.20;;;6.15;;
40459;SDS011;26164;51.138;16.952;2022-12-07T16:43:22;14.32;;;7.97;;
40459;SDS011;26164;51.138;16.952;2022-12-07T16:46:28;17.67;;;7.60;;
40459;SDS011;26164;51.138;16.952;2022-12-07T16:49:17;16.70;;;6.28;;
40459;SDS011;26164;51.138;16.952;2022-12-07T16:57:03;15.52;;;6.35;;
40459;SDS011;26164;51.138;16.952;2022-12-07T17:06:20;13.73;;;6.20;;
40459;SDS011;26164;51.138;16.952;2022-12-07T17:10:16;12.95;;;6.80;;
40459;SDS011;26164;51.138;16.952;2022-12-07T17:16:50;12.43;;;6.35;;
40459;SDS011;26164;51.138;16.952;2022-12-07T17:27:03;17.15;;;6.75;;
40459;SDS011;26164;51.138;16.952;2022-12-07T17:30:31;12.45;;;6.82;;
40459;SDS011;26164;51.138;16.952;2022-12-07T17:33:36;20.52;;;8.77;;
40459;SDS011;26164;51.138;16.952;2022-12-07T17:37:12;17.27;;;9.43;;
40459;SDS011;26164;51.138;16.952;2022-12-07T17:40:14;17.20;;;8.90;;
40459;SDS011;26164;51.138;16.952;2022-12-07T17:51:01;12.43;;;6.85;;
40459;SDS011;26164;51.138;16.952;2022-12-07T17:58:05;16.02;;;8.05;;
40459;SDS011;26164;51.138;16.952;2022-12-07T18:01:19;17.13;;;6.57;;
40459;SDS011;26164;51.138;16.952;2022-12-07T18:04:14;17.88;;;5.93;;
40459;SDS011;26164;51.138;16.952;2022-12-07T18:07:16;14.50;;;6.63;;
40459;SDS011;26164;51.138;16.952;2022-12-07T18:12:56;14.52;;;5.80;;
40459;SDS011;26164;51.138;16.952;2022-12-07T18:15:43;11.20;;;5.68;;
40459;SDS011;26164;51.138;16.952;2022-12-07T18:18:45;13.88;;;6.22;;
40459;SDS011;26164;51.138;16.952;2022-12-07T18:31:14;15.02;;;6.72;;
40459;SDS011;26164;51.138;16.952;2022-12-07T18:33:45;16.70;;;6.82;;
40459;SDS011;26164;51.138;16.952;2022-12-07T18:36:13;18.17;;;7.43;;
40459;SDS011;26164;51.138;16.952;2022-12-07T18:38:44;19.33;;;6.85;;
40459;SDS011;26164;51.138;16.952;2022-12-07T18:41:31;14.75;;;6.10;;
40459;SDS011;26164;51.138;16.952;2022-12-07T18:44:47;16.05;;;6.95;;
40459;SDS011;26164;51.138;16.952;2022-12-07T18:47:46;13.65;;;5.97;;
40459;SDS011;26164;51.138;16.952;2022-12-07T18:51:02;15.10;;;6.00;;
40459;SDS011;26164;51.138;16.952;2022-12-07T18:54:01;12.43;;;5.45;;
40459;SDS011;26164;51.138;16.952;2022-12-07T18:57:09;15.18;;;5.45;;
40459;SDS011;26164;51.138;16.952;2022-12-07T19:03:53;12.75;;;5.32;;
40459;SDS011;26164;51.138;16.952;2022-12-07T19:11:16;18.75;;;7.60;;
40459;SDS011;26164;51.138;16.952;2022-12-07T19:14:35;15.93;;;6.90;;
40459;SDS011;26164;51.138;16.952;2022-12-07T19:20:42;18.33;;;6.88;;
40459;SDS011;26164;51.138;16.952;2022-12-07T19:23:32;17.10;;;7.28;;
40459;SDS011;26164;51.138;16.952;2022-12-07T19:27:04;14.20;;;6.30;;
40459;SDS011;26164;51.138;16.952;2022-12-07T19:34:13;17.40;;;7.28;;
40459;SDS011;26164;51.138;16.952;2022-12-07T19:42:31;15.75;;;7.28;;
40459;SDS011;26164;51.138;16.952;2022-12-07T19:45:24;16.85;;;7.63;;
40459;SDS011;26164;51.138;16.952;2022-12-07T19:49:25;16.23;;;7.22;;
40459;SDS011;26164;51.138;16.952;2022-12-07T20:04:45;26.20;;;10.93;;
40459;SDS011;26164;51.138;16.952;2022-12-07T20:52:38;13.77;;;5.68;;
40459;SDS011;26164;51.138;16.952;2022-12-07T20:55:04;14.15;;;5.18;;
40459;SDS011;26164;51.138;16.952;2022-12-07T20:57:51;13.70;;;5.28;;
40459;SDS011;26164;51.138;16.952;2022-12-07T21:01:34;11.52;;;4.60;;
40459;SDS011;26164;51.138;16.952;2022-12-07T21:22:24;10.55;;;4.72;;
40459;SDS011;26164;51.138;16.952;2022-12-07T21:25:52;11.18;;;5.38;;
40459;SDS011;26164;51.138;16.952;2022-12-07T21:29:08;13.30;;;5.85;;
40459;SDS011;26164;51.138;16.952;2022-12-07T21:33:03;13.82;;;5.72;;
40459;SDS011;26164;51.138;16.952;2022-12-07T21:36:24;13.82;;;6.32;;
40459;SDS011;26164;51.138;16.952;2022-12-07T21:43:20;13.60;;;6.28;;
40459;SDS011;26164;51.138;16.952;2022-12-07T21:46:30;16.33;;;6.85;;
40459;SDS011;26164;51.138;16.952;2022-12-07T21:49:30;15.88;;;5.90;;
40459;SDS011;26164;51.138;16.952;2022-12-07T21:52:17;15.32;;;6.90;;
40459;SDS011;26164;51.138;16.952;2022-12-07T21:55:27;16.40;;;7.72;;
40459;SDS011;26164;51.138;16.952;2022-12-07T21:57:59;23.15;;;8.88;;
40459;SDS011;26164;51.138;16.952;2022-12-07T22:01:40;16.73;;;7.45;;
40459;SDS011;26164;51.138;16.952;2022-12-07T22:04:30;21.85;;;7.85;;
40459;SDS011;26164;51.138;16.952;2022-12-07T22:07:52;15.10;;;7.53;;
40459;SDS011;26164;51.138;16.952;2022-12-07T22:28:15;16.60;;;8.05;;
40459;SDS011;26164;51.138;16.952;2022-12-07T22:35:16;15.10;;;7.53;;
40459;SDS011;26164;51.138;16.952;2022-12-07T23:23:08;15.85;;;7.63;;
40459;SDS011;26164;51.138;16.952;2022-12-07T23:27:13;14.55;;;6.80;;
40459;SDS011;26164;51.138;16.952;2022-12-07T23:30:15;15.57;;;6.38;;
40459;SDS011;26164;51.138;16.952;2022-12-07T23:33:59;11.63;;;5.40;;
40459;SDS011;26164;51.138;16.952;2022-12-07T23:38:17;9.77;;;4.97;;
40459;SDS011;26164;51.138;16.952;2022-12-07T23:41:54;13.57;;;6.10;;
40459;SDS011;26164;51.138;16.952;2022-12-07T23:45:52;19.25;;;6.55;;
40459;SDS011;26164;51.138;16.952;2022-12-07T23:49:27;16.27;;;6.80;;
40459;SDS011;26164;51.138;16.952;2022-12-07T23:52:55;16.98;;;5.85;;
40459;SDS011;26164;51.138;16.952;2022-12-07T23:55:43;14.88;;;6.93;;
40459;SDS011;26164;51.138;16.952;2022-12-07T23:58:31;13.10;;;5.00;;
